sensor_id;sensor_type;location;lat;lon;timestamp;pressure;altitude;pressure_sealevel;temperature;humidity
43480;BME280;29067;35.492;-97.520;2023-07-13T00:00:13;96420.50;;;32.11;49.75
43480;BME280;29067;35.492;-97.520;2023-07-13T00:02:40;96416.46;;;31.66;50.09
43480;BME280;29067;35.492;-97.520;2023-07-13T00:05:09;96416.58;;;32.54;48.79
43480;BME280;29067;35.492;-97.520;2023-07-13T00:07:37;96413.68;;;33.42;47.73
43480;BME280;29067;35.492;-97.520;2023-07-13T00:10:06;96418.98;;;32.56;48.85
43480;BME280;29067;35.492;-97.520;2023-07-13T00:12:37;96417.94;;;32.58;48.45
43480;BME280;29067;35.492;-97.520;2023-07-13T00:15:10;96419.96;;;33.42;48.09
43480;BME280;29067;35.492;-97.520;2023-07-13T00:17:39;96418.33;;;33.34;48.25
43480;BME280;29067;35.492;-97.520;2023-07-13T00:20:08;96414.79;;;33.60;48.22
43480;BME280;29067;35.492;-97.520;2023-07-13T00:22:37;96418.58;;;31.50;50.64
43480;BME280;29067;35.492;-97.520;2023-07-13T00:25:05;96417.26;;;31.21;52.07
43480;BME280;29067;35.492;-97.520;2023-07-13T00:27:34;96420.43;;;31.12;52.92
43480;BME280;29067;35.492;-97.520;2023-07-13T00:30:02;96421.77;;;31.05;53.14
43480;BME280;29067;35.492;-97.520;2023-07-13T00:32:31;96428.46;;;30.37;55.10
43480;BME280;29067;35.492;-97.520;2023-07-13T00:34:59;96423.52;;;30.94;54.13
43480;BME280;29067;35.492;-97.520;2023-07-13T00:37:27;96431.48;;;30.60;54.93
43480;BME280;29067;35.492;-97.520;2023-07-13T00:39:55;96433.82;;;30.25;55.84
43480;BME280;29067;35.492;-97.520;2023-07-13T00:42:24;96440.18;;;30.68;55.46
43480;BME280;29067;35.492;-97.520;2023-07-13T00:46:14;96443.60;;;31.27;55.22
43480;BME280;29067;35.492;-97.520;2023-07-13T00:48:43;96445.11;;;30.47;56.50
43480;BME280;29067;35.492;-97.520;2023-07-13T00:51:14;96449.86;;;30.30;56.88
43480;BME280;29067;35.492;-97.520;2023-07-13T00:53:43;96453.59;;;30.07;57.26
43480;BME280;29067;35.492;-97.520;2023-07-13T00:56:12;96456.38;;;29.91;58.21
43480;BME280;29067;35.492;-97.520;2023-07-13T00:58:40;96458.98;;;29.76;58.62
43480;BME280;29067;35.492;-97.520;2023-07-13T01:01:08;96460.50;;;30.75;58.16
43480;BME280;29067;35.492;-97.520;2023-07-13T01:03:36;96466.56;;;29.84;57.90
43480;BME280;29067;35.492;-97.520;2023-07-13T01:06:05;96464.73;;;31.45;55.36
43480;BME280;29067;35.492;-97.520;2023-07-13T01:08:33;96468.55;;;31.72;55.06
43480;BME280;29067;35.492;-97.520;2023-07-13T01:11:01;96467.91;;;31.29;55.46
43480;BME280;29067;35.492;-97.520;2023-07-13T01:13:29;96467.35;;;31.65;53.97
43480;BME280;29067;35.492;-97.520;2023-07-13T01:16:01;96471.48;;;31.11;54.57
43480;BME280;29067;35.492;-97.520;2023-07-13T01:18:30;96474.83;;;31.25;54.29
43480;BME280;29067;35.492;-97.520;2023-07-13T01:21:02;96475.60;;;29.97;56.15
43480;BME280;29067;35.492;-97.520;2023-07-13T01:23:32;96474.24;;;30.00;57.07
43480;BME280;29067;35.492;-97.520;2023-07-13T01:26:01;96474.67;;;30.62;55.52
43480;BME280;29067;35.492;-97.520;2023-07-13T01:28:29;96473.94;;;31.21;53.87
43480;BME280;29067;35.492;-97.520;2023-07-13T01:30:58;96473.81;;;31.81;52.89
43480;BME280;29067;35.492;-97.520;2023-07-13T01:33:27;96475.38;;;32.12;52.16
43480;BME280;29067;35.492;-97.520;2023-07-13T01:35:55;96482.69;;;30.88;54.02
43480;BME280;29067;35.492;-97.520;2023-07-13T01:38:24;96485.74;;;31.47;53.67
43480;BME280;29067;35.492;-97.520;2023-07-13T01:40:53;96488.38;;;30.37;54.14
43480;BME280;29067;35.492;-97.520;2023-07-13T01:43:21;96486.55;;;30.94;54.02
43480;BME280;29067;35.492;-97.520;2023-07-13T01:45:49;96488.12;;;30.43;53.92
43480;BME280;29067;35.492;-97.520;2023-07-13T01:48:18;96483.71;;;31.68;53.02
43480;BME280;29067;35.492;-97.520;2023-07-13T01:50:46;96484.39;;;30.07;54.79
43480;BME280;29067;35.492;-97.520;2023-07-13T01:53:15;96482.81;;;30.41;54.96
43480;BME280;29067;35.492;-97.520;2023-07-13T01:55:44;96477.12;;;31.19;52.99
43480;BME280;29067;35.492;-97.520;2023-07-13T01:58:11;96484.96;;;30.33;53.11
43480;BME280;29067;35.492;-97.520;2023-07-13T02:00:40;96483.24;;;30.57;53.45
43480;BME280;29067;35.492;-97.520;2023-07-13T02:03:08;96482.28;;;30.10;54.76
43480;BME280;29067;35.492;-97.520;2023-07-13T02:05:37;96488.42;;;31.38;52.86
43480;BME280;29067;35.492;-97.520;2023-07-13T02:08:05;96488.11;;;31.01;52.83
43480;BME280;29067;35.492;-97.520;2023-07-13T02:10:33;96486.11;;;31.22;52.06
43480;BME280;29067;35.492;-97.520;2023-07-13T02:13:02;96490.03;;;30.46;53.14
43480;BME280;29067;35.492;-97.520;2023-07-13T02:15:31;96489.60;;;29.99;53.59
43480;BME280;29067;35.492;-97.520;2023-07-13T02:17:59;96485.84;;;29.60;54.38
43480;BME280;29067;35.492;-97.520;2023-07-13T02:20:27;96486.41;;;30.14;53.25
43480;BME280;29067;35.492;-97.520;2023-07-13T02:22:56;96486.12;;;30.34;53.36
43480;BME280;29067;35.492;-97.520;2023-07-13T02:25:23;96484.71;;;29.87;54.43
43480;BME280;29067;35.492;-97.520;2023-07-13T02:27:52;96492.23;;;29.28;55.07
43480;BME280;29067;35.492;-97.520;2023-07-13T02:30:26;96489.74;;;29.75;54.01
43480;BME280;29067;35.492;-97.520;2023-07-13T02:32:54;96490.66;;;29.75;54.67
43480;BME280;29067;35.492;-97.520;2023-07-13T02:35:29;96496.18;;;28.55;57.38
43480;BME280;29067;35.492;-97.520;2023-07-13T02:37:58;96493.84;;;30.48;54.48
43480;BME280;29067;35.492;-97.520;2023-07-13T02:40:26;96497.05;;;29.15;55.78
43480;BME280;29067;35.492;-97.520;2023-07-13T02:42:54;96496.76;;;28.30;58.04
43480;BME280;29067;35.492;-97.520;2023-07-13T02:45:22;96500.29;;;29.46;56.09
43480;BME280;29067;35.492;-97.520;2023-07-13T02:47:51;96502.57;;;29.48;56.15
43480;BME280;29067;35.492;-97.520;2023-07-13T02:50:19;96505.19;;;29.99;55.57
43480;BME280;29067;35.492;-97.520;2023-07-13T02:52:47;96511.48;;;28.62;58.18
43480;BME280;29067;35.492;-97.520;2023-07-13T02:55:15;96517.74;;;29.28;58.08
43480;BME280;29067;35.492;-97.520;2023-07-13T02:57:43;96521.47;;;28.34;59.72
43480;BME280;29067;35.492;-97.520;2023-07-13T03:00:12;96535.51;;;28.17;61.35
43480;BME280;29067;35.492;-97.520;2023-07-13T03:02:40;96530.54;;;28.70;59.53
43480;BME280;29067;35.492;-97.520;2023-07-13T03:05:09;96535.23;;;29.10;59.49
43480;BME280;29067;35.492;-97.520;2023-07-13T03:07:36;96538.65;;;28.78;59.15
43480;BME280;29067;35.492;-97.520;2023-07-13T03:10:06;96543.03;;;27.44;61.29
43480;BME280;29067;35.492;-97.520;2023-07-13T03:12:34;96542.16;;;29.48;58.09
43480;BME280;29067;35.492;-97.520;2023-07-13T03:15:04;96548.28;;;29.40;58.16
43480;BME280;29067;35.492;-97.520;2023-07-13T03:17:32;96551.69;;;29.47;58.46
43480;BME280;29067;35.492;-97.520;2023-07-13T03:20:00;96555.02;;;28.25;60.49
43480;BME280;29067;35.492;-97.520;2023-07-13T03:22:28;96556.00;;;28.50;60.72
43480;BME280;29067;35.492;-97.520;2023-07-13T03:24:57;96562.79;;;27.99;61.75
43480;BME280;29067;35.492;-97.520;2023-07-13T03:27:25;96561.68;;;27.37;63.23
43480;BME280;29067;35.492;-97.520;2023-07-13T03:29:53;96567.78;;;26.71;65.24
43480;BME280;29067;35.492;-97.520;2023-07-13T03:32:22;96560.22;;;28.49;62.82
43480;BME280;29067;35.492;-97.520;2023-07-13T03:34:50;96567.20;;;28.60;63.32
43480;BME280;29067;35.492;-97.520;2023-07-13T03:37:18;96567.57;;;29.37;61.09
43480;BME280;29067;35.492;-97.520;2023-07-13T03:39:47;96569.18;;;27.93;63.14
43480;BME280;29067;35.492;-97.520;2023-07-13T03:42:16;96564.78;;;29.73;60.64
43480;BME280;29067;35.492;-97.520;2023-07-13T03:44:44;96566.85;;;29.17;60.13
43480;BME280;29067;35.492;-97.520;2023-07-13T03:47:12;96564.78;;;29.37;59.39
43480;BME280;29067;35.492;-97.520;2023-07-13T03:49:40;96568.89;;;27.09;65.47
43480;BME280;29067;35.492;-97.520;2023-07-13T03:52:08;96567.73;;;27.93;64.85
43480;BME280;29067;35.492;-97.520;2023-07-13T03:54:37;96566.01;;;28.78;63.07
43480;BME280;29067;35.492;-97.520;2023-07-13T03:57:05;96563.88;;;28.89;61.58
43480;BME280;29067;35.492;-97.520;2023-07-13T03:59:33;96562.96;;;27.72;64.29
43480;BME280;29067;35.492;-97.520;2023-07-13T04:02:02;96561.02;;;28.03;63.81
43480;BME280;29067;35.492;-97.520;2023-07-13T04:04:29;96551.36;;;28.05;63.24
43480;BME280;29067;35.492;-97.520;2023-07-13T04:06:57;96552.55;;;29.12;61.39
43480;BME280;29067;35.492;-97.520;2023-07-13T04:09:26;96553.56;;;27.29;66.22
43480;BME280;29067;35.492;-97.520;2023-07-13T04:11:54;96548.26;;;27.69;66.63
43480;BME280;29067;35.492;-97.520;2023-07-13T04:14:22;96547.10;;;28.22;65.03
43480;BME280;29067;35.492;-97.520;2023-07-13T04:16:50;96544.77;;;28.10;65.01
43480;BME280;29067;35.492;-97.520;2023-07-13T04:19:18;96544.35;;;28.13;64.68
43480;BME280;29067;35.492;-97.520;2023-07-13T04:21:47;96544.31;;;28.84;63.14
43480;BME280;29067;35.492;-97.520;2023-07-13T04:24:15;96544.56;;;27.38;67.93
43480;BME280;29067;35.492;-97.520;2023-07-13T04:26:44;96535.65;;;27.61;65.96
43480;BME280;29067;35.492;-97.520;2023-07-13T04:29:12;96536.05;;;27.81;66.57
43480;BME280;29067;35.492;-97.520;2023-07-13T04:31:40;96536.15;;;26.98;67.89
43480;BME280;29067;35.492;-97.520;2023-07-13T04:34:08;96533.53;;;27.79;66.75
43480;BME280;29067;35.492;-97.520;2023-07-13T04:36:36;96537.44;;;28.40;65.17
43480;BME280;29067;35.492;-97.520;2023-07-13T04:39:04;96539.25;;;27.63;66.33
43480;BME280;29067;35.492;-97.520;2023-07-13T04:41:33;96548.94;;;26.96;68.46
43480;BME280;29067;35.492;-97.520;2023-07-13T04:44:01;96545.28;;;27.39;67.35
43480;BME280;29067;35.492;-97.520;2023-07-13T04:46:29;96544.10;;;27.72;66.55
43480;BME280;29067;35.492;-97.520;2023-07-13T04:51:07;96545.62;;;28.99;64.18
43480;BME280;29067;35.492;-97.520;2023-07-13T04:53:35;96547.99;;;27.60;66.52
43480;BME280;29067;35.492;-97.520;2023-07-13T04:56:04;96553.01;;;27.37;67.17
43480;BME280;29067;35.492;-97.520;2023-07-13T04:58:33;96554.77;;;27.58;66.46
43480;BME280;29067;35.492;-97.520;2023-07-13T05:01:03;96551.77;;;28.15;65.06
43480;BME280;29067;35.492;-97.520;2023-07-13T05:03:31;96554.18;;;27.98;65.72
43480;BME280;29067;35.492;-97.520;2023-07-13T05:06:02;96558.18;;;28.19;65.12
43480;BME280;29067;35.492;-97.520;2023-07-13T05:08:30;96561.49;;;28.90;63.20
43480;BME280;29067;35.492;-97.520;2023-07-13T05:11:00;96561.16;;;27.90;64.64
43480;BME280;29067;35.492;-97.520;2023-07-13T05:13:29;96559.28;;;27.71;65.22
43480;BME280;29067;35.492;-97.520;2023-07-13T05:15:58;96565.21;;;28.08;65.40
43480;BME280;29067;35.492;-97.520;2023-07-13T05:18:26;96569.81;;;27.90;65.69
43480;BME280;29067;35.492;-97.520;2023-07-13T05:21:05;96574.38;;;27.25;66.00
43480;BME280;29067;35.492;-97.520;2023-07-13T05:23:35;96574.93;;;26.90;65.84
43480;BME280;29067;35.492;-97.520;2023-07-13T05:26:04;96577.02;;;27.39;66.75
43480;BME280;29067;35.492;-97.520;2023-07-13T05:28:33;96574.30;;;27.14;67.88
43480;BME280;29067;35.492;-97.520;2023-07-13T05:31:01;96573.66;;;27.75;65.74
43480;BME280;29067;35.492;-97.520;2023-07-13T05:33:29;96574.81;;;26.81;67.85
43480;BME280;29067;35.492;-97.520;2023-07-13T05:35:57;96569.09;;;28.57;63.51
43480;BME280;29067;35.492;-97.520;2023-07-13T05:38:26;96573.67;;;27.17;64.91
43480;BME280;29067;35.492;-97.520;2023-07-13T05:40:55;96580.40;;;26.08;69.08
43480;BME280;29067;35.492;-97.520;2023-07-13T05:43:24;96569.42;;;27.18;66.40
43480;BME280;29067;35.492;-97.520;2023-07-13T05:45:54;96567.35;;;26.79;66.98
43480;BME280;29067;35.492;-97.520;2023-07-13T05:48:23;96573.19;;;27.41;65.80
43480;BME280;29067;35.492;-97.520;2023-07-13T05:50:51;96569.28;;;28.13;64.64
43480;BME280;29067;35.492;-97.520;2023-07-13T05:53:19;96563.39;;;27.62;63.89
43480;BME280;29067;35.492;-97.520;2023-07-13T05:55:48;96560.80;;;26.92;66.15
43480;BME280;29067;35.492;-97.520;2023-07-13T05:58:16;96553.80;;;26.92;65.92
43480;BME280;29067;35.492;-97.520;2023-07-13T06:00:45;96557.58;;;26.47;68.37
43480;BME280;29067;35.492;-97.520;2023-07-13T06:03:13;96553.75;;;27.23;65.41
43480;BME280;29067;35.492;-97.520;2023-07-13T06:05:41;96546.53;;;27.34;64.66
43480;BME280;29067;35.492;-97.520;2023-07-13T06:08:09;96533.55;;;27.73;63.87
43480;BME280;29067;35.492;-97.520;2023-07-13T06:10:37;96530.16;;;27.44;64.22
43480;BME280;29067;35.492;-97.520;2023-07-13T06:13:05;96526.50;;;26.78;66.31
43480;BME280;29067;35.492;-97.520;2023-07-13T06:15:33;96527.36;;;26.48;65.56
43480;BME280;29067;35.492;-97.520;2023-07-13T06:18:01;96521.79;;;29.13;60.16
43480;BME280;29067;35.492;-97.520;2023-07-13T06:20:30;96514.95;;;28.16;61.81
43480;BME280;29067;35.492;-97.520;2023-07-13T06:22:58;96518.52;;;27.97;61.16
43480;BME280;29067;35.492;-97.520;2023-07-13T06:25:27;96522.52;;;28.09;61.89
43480;BME280;29067;35.492;-97.520;2023-07-13T06:27:54;96520.89;;;27.00;63.12
43480;BME280;29067;35.492;-97.520;2023-07-13T06:30:24;96517.84;;;27.58;61.72
43480;BME280;29067;35.492;-97.520;2023-07-13T06:32:52;96512.56;;;28.65;59.49
43480;BME280;29067;35.492;-97.520;2023-07-13T06:35:20;96513.48;;;27.98;61.32
43480;BME280;29067;35.492;-97.520;2023-07-13T06:37:48;96512.06;;;28.66;59.04
43480;BME280;29067;35.492;-97.520;2023-07-13T06:40:17;96509.68;;;28.24;59.40
43480;BME280;29067;35.492;-97.520;2023-07-13T06:42:45;96512.71;;;28.08;59.11
43480;BME280;29067;35.492;-97.520;2023-07-13T06:45:13;96512.53;;;28.44;57.86
43480;BME280;29067;35.492;-97.520;2023-07-13T06:47:41;96511.82;;;28.01;58.29
43480;BME280;29067;35.492;-97.520;2023-07-13T06:50:10;96509.68;;;28.56;57.97
43480;BME280;29067;35.492;-97.520;2023-07-13T06:52:38;96505.29;;;28.02;57.90
43480;BME280;29067;35.492;-97.520;2023-07-13T06:55:07;96506.28;;;29.12;55.80
43480;BME280;29067;35.492;-97.520;2023-07-13T06:57:35;96506.05;;;28.95;55.53
43480;BME280;29067;35.492;-97.520;2023-07-13T07:00:04;96503.05;;;26.14;59.79
43480;BME280;29067;35.492;-97.520;2023-07-13T07:02:32;96510.14;;;27.43;58.62
43480;BME280;29067;35.492;-97.520;2023-07-13T07:05:00;96509.84;;;28.67;55.83
43480;BME280;29067;35.492;-97.520;2023-07-13T07:07:29;96509.42;;;28.23;57.14
43480;BME280;29067;35.492;-97.520;2023-07-13T07:09:57;96507.52;;;28.67;55.25
43480;BME280;29067;35.492;-97.520;2023-07-13T07:12:25;96497.08;;;28.72;54.93
43480;BME280;29067;35.492;-97.520;2023-07-13T07:14:53;96497.49;;;28.58;55.05
43480;BME280;29067;35.492;-97.520;2023-07-13T07:17:22;96489.80;;;28.82;54.71
43480;BME280;29067;35.492;-97.520;2023-07-13T07:19:50;96488.40;;;29.20;53.89
43480;BME280;29067;35.492;-97.520;2023-07-13T07:22:18;96489.28;;;28.73;55.43
43480;BME280;29067;35.492;-97.520;2023-07-13T07:24:47;96489.28;;;29.06;54.17
43480;BME280;29067;35.492;-97.520;2023-07-13T07:27:15;96491.52;;;27.12;57.08
43480;BME280;29067;35.492;-97.520;2023-07-13T07:29:43;96493.94;;;28.81;55.46
43480;BME280;29067;35.492;-97.520;2023-07-13T07:32:12;96492.19;;;27.13;57.10
43480;BME280;29067;35.492;-97.520;2023-07-13T07:34:40;96496.92;;;28.75;55.67
43480;BME280;29067;35.492;-97.520;2023-07-13T07:37:12;96494.88;;;29.01;53.83
43480;BME280;29067;35.492;-97.520;2023-07-13T07:39:42;96496.00;;;28.11;55.42
43480;BME280;29067;35.492;-97.520;2023-07-13T07:42:10;96495.80;;;27.33;56.32
43480;BME280;29067;35.492;-97.520;2023-07-13T07:44:39;96492.31;;;27.39;56.49
43480;BME280;29067;35.492;-97.520;2023-07-13T07:47:07;96491.95;;;28.10;56.67
43480;BME280;29067;35.492;-97.520;2023-07-13T07:49:36;96489.84;;;27.61;56.92
43480;BME280;29067;35.492;-97.520;2023-07-13T07:52:04;96489.14;;;27.82;56.87
43480;BME280;29067;35.492;-97.520;2023-07-13T07:54:33;96481.05;;;28.66;54.95
43480;BME280;29067;35.492;-97.520;2023-07-13T07:57:01;96475.20;;;28.07;56.22
43480;BME280;29067;35.492;-97.520;2023-07-13T07:59:29;96475.73;;;27.24;57.79
43480;BME280;29067;35.492;-97.520;2023-07-13T08:01:57;96476.19;;;27.92;55.21
43480;BME280;29067;35.492;-97.520;2023-07-13T08:04:25;96477.48;;;28.79;55.36
43480;BME280;29067;35.492;-97.520;2023-07-13T08:06:54;96476.73;;;28.96;53.75
43480;BME280;29067;35.492;-97.520;2023-07-13T08:09:22;96470.08;;;29.18;53.16
43480;BME280;29067;35.492;-97.520;2023-07-13T08:11:50;96473.02;;;29.18;53.10
43480;BME280;29067;35.492;-97.520;2023-07-13T08:14:18;96477.34;;;28.04;54.66
43480;BME280;29067;35.492;-97.520;2023-07-13T08:16:46;96472.26;;;28.14;54.50
43480;BME280;29067;35.492;-97.520;2023-07-13T08:19:14;96472.78;;;28.80;53.59
43480;BME280;29067;35.492;-97.520;2023-07-13T08:21:42;96472.58;;;28.17;55.00
43480;BME280;29067;35.492;-97.520;2023-07-13T08:24:10;96465.64;;;28.73;53.82
43480;BME280;29067;35.492;-97.520;2023-07-13T08:26:39;96470.02;;;29.35;52.66
43480;BME280;29067;35.492;-97.520;2023-07-13T08:29:07;96471.48;;;28.46;53.91
43480;BME280;29067;35.492;-97.520;2023-07-13T08:31:35;96481.27;;;26.72;57.46
43480;BME280;29067;35.492;-97.520;2023-07-13T08:34:04;96474.06;;;27.67;55.34
43480;BME280;29067;35.492;-97.520;2023-07-13T08:36:33;96473.53;;;28.63;55.25
43480;BME280;29067;35.492;-97.520;2023-07-13T08:39:01;96472.76;;;27.89;56.10
43480;BME280;29067;35.492;-97.520;2023-07-13T08:41:29;96477.43;;;28.45;54.70
43480;BME280;29067;35.492;-97.520;2023-07-13T08:43:59;96476.15;;;27.85;56.51
43480;BME280;29067;35.492;-97.520;2023-07-13T08:46:33;96474.34;;;29.13;54.20
43480;BME280;29067;35.492;-97.520;2023-07-13T08:49:06;96461.32;;;28.62;54.17
43480;BME280;29067;35.492;-97.520;2023-07-13T08:51:42;96455.36;;;27.71;56.40
43480;BME280;29067;35.492;-97.520;2023-07-13T08:54:21;96459.52;;;28.12;55.82
43480;BME280;29067;35.492;-97.520;2023-07-13T08:56:53;96468.92;;;28.25;54.79
43480;BME280;29067;35.492;-97.520;2023-07-13T08:59:27;96467.52;;;28.19;55.43
43480;BME280;29067;35.492;-97.520;2023-07-13T09:02:14;96462.24;;;28.56;54.39
43480;BME280;29067;35.492;-97.520;2023-07-13T09:04:50;96460.92;;;28.40;54.56
43480;BME280;29067;35.492;-97.520;2023-07-13T09:07:28;96448.03;;;27.22;56.33
43480;BME280;29067;35.492;-97.520;2023-07-13T09:10:07;96445.17;;;27.80;55.38
43480;BME280;29067;35.492;-97.520;2023-07-13T09:12:49;96435.24;;;27.70;55.96
43480;BME280;29067;35.492;-97.520;2023-07-13T09:15:25;96434.41;;;27.62;56.00
43480;BME280;29067;35.492;-97.520;2023-07-13T09:17:58;96430.81;;;27.59;56.26
43480;BME280;29067;35.492;-97.520;2023-07-13T09:20:32;96424.98;;;27.65;56.03
43480;BME280;29067;35.492;-97.520;2023-07-13T09:23:07;96425.71;;;27.89;55.41
43480;BME280;29067;35.492;-97.520;2023-07-13T09:25:40;96426.24;;;26.80;57.21
43480;BME280;29067;35.492;-97.520;2023-07-13T09:28:12;96431.11;;;25.91;58.62
43480;BME280;29067;35.492;-97.520;2023-07-13T09:30:49;96428.03;;;26.68;58.08
43480;BME280;29067;35.492;-97.520;2023-07-13T09:33:18;96427.21;;;27.16;56.48
43480;BME280;29067;35.492;-97.520;2023-07-13T09:35:47;96438.98;;;26.57;57.91
43480;BME280;29067;35.492;-97.520;2023-07-13T09:38:17;96430.05;;;26.75;58.46
43480;BME280;29067;35.492;-97.520;2023-07-13T09:40:58;96429.13;;;26.44;57.90
43480;BME280;29067;35.492;-97.520;2023-07-13T09:43:27;96416.09;;;26.75;56.63
43480;BME280;29067;35.492;-97.520;2023-07-13T09:45:55;96412.04;;;27.56;55.48
43480;BME280;29067;35.492;-97.520;2023-07-13T09:48:23;96423.29;;;25.71;59.17
43480;BME280;29067;35.492;-97.520;2023-07-13T09:50:55;96425.21;;;26.72;57.87
43480;BME280;29067;35.492;-97.520;2023-07-13T09:53:23;96422.06;;;25.95;58.89
43480;BME280;29067;35.492;-97.520;2023-07-13T09:55:52;96418.89;;;26.57;56.42
43480;BME280;29067;35.492;-97.520;2023-07-13T09:58:24;96425.96;;;27.54;55.77
43480;BME280;29067;35.492;-97.520;2023-07-13T10:00:56;96426.01;;;26.59;55.48
43480;BME280;29067;35.492;-97.520;2023-07-13T10:03:26;96422.99;;;26.80;55.04
43480;BME280;29067;35.492;-97.520;2023-07-13T10:05:54;96419.90;;;28.37;52.64
43480;BME280;29067;35.492;-97.520;2023-07-13T10:08:30;96420.43;;;28.10;52.94
43480;BME280;29067;35.492;-97.520;2023-07-13T10:11:00;96425.08;;;27.35;53.63
43480;BME280;29067;35.492;-97.520;2023-07-13T10:13:32;96419.69;;;26.77;54.71
43480;BME280;29067;35.492;-97.520;2023-07-13T10:16:01;96423.80;;;25.81;55.73
43480;BME280;29067;35.492;-97.520;2023-07-13T10:18:31;96422.65;;;27.63;53.00
43480;BME280;29067;35.492;-97.520;2023-07-13T10:21:12;96424.33;;;27.04;54.33
43480;BME280;29067;35.492;-97.520;2023-07-13T10:23:40;96434.50;;;26.26;55.05
43480;BME280;29067;35.492;-97.520;2023-07-13T10:26:15;96431.28;;;26.12;56.81
43480;BME280;29067;35.492;-97.520;2023-07-13T10:28:46;96425.48;;;27.09;55.15
43480;BME280;29067;35.492;-97.520;2023-07-13T10:31:16;96431.10;;;27.13;53.62
43480;BME280;29067;35.492;-97.520;2023-07-13T10:33:45;96435.47;;;27.05;54.37
43480;BME280;29067;35.492;-97.520;2023-07-13T10:36:19;96444.47;;;26.50;54.60
43480;BME280;29067;35.492;-97.520;2023-07-13T10:38:51;96442.43;;;26.88;53.68
43480;BME280;29067;35.492;-97.520;2023-07-13T10:41:21;96450.23;;;26.67;54.55
43480;BME280;29067;35.492;-97.520;2023-07-13T10:43:53;96452.86;;;25.57;57.65
43480;BME280;29067;35.492;-97.520;2023-07-13T10:46:24;96451.02;;;25.59;56.33
43480;BME280;29067;35.492;-97.520;2023-07-13T10:48:56;96457.95;;;25.21;57.75
43480;BME280;29067;35.492;-97.520;2023-07-13T10:51:26;96457.71;;;25.98;56.68
43480;BME280;29067;35.492;-97.520;2023-07-13T10:54:59;96461.51;;;25.52;57.45
43480;BME280;29067;35.492;-97.520;2023-07-13T10:57:29;96462.57;;;26.25;55.08
43480;BME280;29067;35.492;-97.520;2023-07-13T11:03:00;96477.21;;;25.50;55.99
43480;BME280;29067;35.492;-97.520;2023-07-13T11:05:32;96483.89;;;25.93;55.19
43480;BME280;29067;35.492;-97.520;2023-07-13T11:08:16;96495.83;;;26.25;54.59
43480;BME280;29067;35.492;-97.520;2023-07-13T11:10:50;96500.87;;;25.68;54.54
43480;BME280;29067;35.492;-97.520;2023-07-13T11:13:39;96505.46;;;26.76;54.20
43480;BME280;29067;35.492;-97.520;2023-07-13T11:16:44;96511.43;;;26.57;54.31
43480;BME280;29067;35.492;-97.520;2023-07-13T11:19:40;96517.81;;;26.21;55.36
43480;BME280;29067;35.492;-97.520;2023-07-13T11:22:15;96521.35;;;26.05;54.90
43480;BME280;29067;35.492;-97.520;2023-07-13T11:25:02;96526.89;;;27.11;53.94
43480;BME280;29067;35.492;-97.520;2023-07-13T11:27:37;96562.37;;;27.86;51.56
43480;BME280;29067;35.492;-97.520;2023-07-13T11:30:22;96611.95;;;28.75;51.03
43480;BME280;29067;35.492;-97.520;2023-07-13T11:32:51;96631.91;;;27.67;52.39
43480;BME280;29067;35.492;-97.520;2023-07-13T11:35:30;96643.67;;;26.52;53.47
43480;BME280;29067;35.492;-97.520;2023-07-13T11:37:58;96638.18;;;27.99;51.75
43480;BME280;29067;35.492;-97.520;2023-07-13T11:40:28;96639.25;;;28.80;50.43
43480;BME280;29067;35.492;-97.520;2023-07-13T11:43:00;96638.96;;;28.90;49.92
43480;BME280;29067;35.492;-97.520;2023-07-13T11:45:28;96625.05;;;28.81;50.47
43480;BME280;29067;35.492;-97.520;2023-07-13T11:47:56;96636.17;;;26.71;53.10
43480;BME280;29067;35.492;-97.520;2023-07-13T11:50:25;96642.37;;;29.18;50.47
43480;BME280;29067;35.492;-97.520;2023-07-13T11:52:55;96652.86;;;26.42;53.29
43480;BME280;29067;35.492;-97.520;2023-07-13T11:55:23;96659.66;;;27.66;52.79
43480;BME280;29067;35.492;-97.520;2023-07-13T11:57:53;96675.64;;;28.72;51.88
43480;BME280;29067;35.492;-97.520;2023-07-13T12:00:26;96671.65;;;26.87;53.88
43480;BME280;29067;35.492;-97.520;2023-07-13T12:02:58;96655.92;;;27.45;53.48
43480;BME280;29067;35.492;-97.520;2023-07-13T12:05:27;96651.14;;;27.74;53.50
43480;BME280;29067;35.492;-97.520;2023-07-13T12:07:55;96662.98;;;28.51;52.30
43480;BME280;29067;35.492;-97.520;2023-07-13T12:10:26;96667.23;;;29.00;51.64
43480;BME280;29067;35.492;-97.520;2023-07-13T12:12:56;96661.32;;;28.28;53.56
43480;BME280;29067;35.492;-97.520;2023-07-13T12:15:30;96657.70;;;26.07;55.17
43480;BME280;29067;35.492;-97.520;2023-07-13T12:18:09;96660.31;;;27.82;54.63
43480;BME280;29067;35.492;-97.520;2023-07-13T12:20:39;96660.53;;;27.80;55.43
43480;BME280;29067;35.492;-97.520;2023-07-13T12:23:19;96661.48;;;28.14;54.99
43480;BME280;29067;35.492;-97.520;2023-07-13T12:25:48;96674.09;;;26.83;56.83
43480;BME280;29067;35.492;-97.520;2023-07-13T12:28:37;96682.58;;;28.79;54.29
43480;BME280;29067;35.492;-97.520;2023-07-13T12:31:07;96692.25;;;29.18;53.63
43480;BME280;29067;35.492;-97.520;2023-07-13T12:33:47;96700.21;;;27.68;55.65
43480;BME280;29067;35.492;-97.520;2023-07-13T12:36:16;96701.07;;;25.99;59.22
43480;BME280;29067;35.492;-97.520;2023-07-13T12:38:46;96703.37;;;25.91;60.06
43480;BME280;29067;35.492;-97.520;2023-07-13T12:41:15;96700.18;;;26.00;61.09
43480;BME280;29067;35.492;-97.520;2023-07-13T12:43:45;96699.93;;;27.57;58.06
43480;BME280;29067;35.492;-97.520;2023-07-13T12:46:18;96700.02;;;27.30;58.60
43480;BME280;29067;35.492;-97.520;2023-07-13T12:48:50;96696.24;;;27.72;57.96
43480;BME280;29067;35.492;-97.520;2023-07-13T12:51:22;96693.48;;;27.28;57.22
43480;BME280;29067;35.492;-97.520;2023-07-13T12:53:57;96688.40;;;25.76;59.73
43480;BME280;29067;35.492;-97.520;2023-07-13T12:56:27;96682.18;;;24.72;63.09
43480;BME280;29067;35.492;-97.520;2023-07-13T12:58:58;96687.07;;;25.61;63.11
43480;BME280;29067;35.492;-97.520;2023-07-13T13:01:29;96693.71;;;28.31;58.03